Time;durP1;ratioP1;P1;durP2;ratioP2;P2;SDS_P1;SDS_P2;PMS_P1;PMS_P2;Temp;Humidity;BMP_temperature;BMP_pressure;BME280_temperature;BME280_humidity;BME280_pressure;Samples;Min_cycle;Max_cycle;Signal;HPM_P1;HPM_P2
2020/09/05 09:40:24;;;;;;;1.5;0.3;;;;;;;34.84;33.11523;939.5022;;;;
2020/09/05 09:42:53;;;;;;;0.3;0.3;;;;;;;35.23;33.2998;939.4767;;;;
2020/09/05 09:45:22;;;;;;;0.4;0.3;;;;;;;35.58;32.58887;939.5114;;;;
2020/09/05 09:47:47;;;;;;;0.4;0.3;;;;;;;35.73;30.75098;939.4913;;;;
2020/09/05 09:50:17;;;;;;;0.4;0.3;;;;;;;35.86;29.65918;939.4707;;;;
2020/09/05 09:52:46;;;;;;;0.2;0.2;;;;;;;35.83;29.51172;939.4058;;;;
2020/09/05 09:55:11;;;;;;;2.6;0.4;;;;;;;36.13;28.96289;939.3414;;;;
2020/09/05 09:57:38;;;;;;;0.9;0.4;;;;;;;36.43;28.48633;939.3753;;;;
2020/09/05 10:00:04;;;;;;;0.3;0.3;;;;;;;35.78;30.11328;939.3492;;;;
2020/09/05 10:02:29;;;;;;;0.7;0.4;;;;;;;35.62;30.1875;939.3443;;;;
2020/09/05 10:04:56;;;;;;;0.2;0.2;;;;;;;35.21;31.1748;939.3097;;;;
2020/09/05 10:07:22;;;;;;;0.3;0.2;;;;;;;35.64;30.62402;939.2424;;;;
2020/09/05 10:09:48;;;;;;;0.2;0.2;;;;;;;36.3;30.57129;939.2263;;;;
2020/09/05 10:12:13;;;;;;;0.7;0.5;;;;;;;36.29;31.35645;939.2021;;;;
2020/09/05 10:14:41;;;;;;;0.6;0.4;;;;;;;36.42;28.47266;939.1572;;;;
2020/09/05 10:17:06;;;;;;;0.3;0.3;;;;;;;36.62;28.41309;939.1473;;;;
2020/09/05 10:19:33;;;;;;;0.3;0.3;;;;;;;36.21;28.36328;939.1191;;;;
2020/09/05 10:21:58;;;;;;;0.2;0.2;;;;;;;36.3;29.08301;939.1261;;;;
2020/09/05 10:24:25;;;;;;;0.4;0.3;;;;;;;36.31;28.62402;939.063;;;;
2020/09/05 10:26:50;;;;;;;0.5;0.4;;;;;;;36.6;29.33203;938.9589;;;;
2020/09/05 10:29:19;;;;;;;1.4;0.7;;;;;;;36.99;27.55176;939.0391;;;;
2020/09/05 10:31:40;;;;;;;0.9;0.3;;;;;;;37.14;26.02148;938.9741;;;;
2020/09/05 10:34:05;;;;;;;0.3;0.3;;;;;;;37.09;27.49609;938.9667;;;;
2020/09/05 10:36:31;;;;;;;0.3;0.2;;;;;;;37.15;26.33691;938.9162;;;;
2020/09/05 10:38:56;;;;;;;0.5;0.2;;;;;;;37.64;28.80371;938.9238;;;;
2020/09/05 10:41:22;;;;;;;0.4;0.4;;;;;;;38.03;26.64258;938.8928;;;;
2020/09/05 10:43:47;;;;;;;1.5;0.6;;;;;;;38.37;26.00586;938.8461;;;;
2020/09/05 10:46:14;;;;;;;0.5;0.5;;;;;;;38.69;28.0791;938.8267;;;;
2020/09/05 10:48:39;;;;;;;0.3;0.3;;;;;;;39;27.51465;938.8361;;;;
2020/09/05 10:51:06;;;;;;;0.3;0.2;;;;;;;39.05;26.51953;938.7883;;;;
2020/09/05 10:53:31;;;;;;;0.5;0.3;;;;;;;38.98;26.85547;938.8019;;;;
2020/09/05 10:55:57;;;;;;;0.3;0.2;;;;;;;39.22;27.83203;938.7709;;;;
2020/09/05 10:58:23;;;;;;;0.2;0.2;;;;;;;39.58;26.26855;938.776;;;;
2020/09/05 11:00:50;;;;;;;0.4;0.3;;;;;;;39.66;24.73828;938.7161;;;;
2020/09/05 11:03:15;;;;;;;10.2;0.7;;;;;;;39.68;24.91016;938.7289;;;;
2020/09/05 11:05:40;;;;;;;0.3;0.3;;;;;;;39.66;23.42285;938.7289;;;;
2020/09/05 11:08:05;;;;;;;0.3;0.3;;;;;;;39.5;22.85352;938.6758;;;;
2020/09/05 11:10:30;;;;;;;0.4;0.3;;;;;;;38.96;26.34375;938.5964;;;;
2020/09/05 11:12:55;;;;;;;0.2;0.2;;;;;;;39.03;25.22852;938.6058;;;;
2020/09/05 11:15:20;;;;;;;0.5;0.4;;;;;;;38.86;26.60547;938.5623;;;;
2020/09/05 11:17:47;;;;;;;0.3;0.3;;;;;;;38.31;27.30273;938.5466;;;;
2020/09/05 11:20:12;;;;;;;3.3;0.5;;;;;;;37.89;27.35059;938.519;;;;
2020/09/05 11:22:38;;;;;;;0.4;0.3;;;;;;;37.33;27.30566;938.5011;;;;
2020/09/05 11:25:03;;;;;;;0.4;0.3;;;;;;;37.19;28.09668;938.4914;;;;
2020/09/05 11:27:29;;;;;;;1.1;0.5;;;;;;;37.12;27.875;938.46;;;;
2020/09/05 11:29:55;;;;;;;0.5;0.4;;;;;;;37.05;28.04004;938.4678;;;;
2020/09/05 11:32:20;;;;;;;1.4;0.4;;;;;;;36.6;28.53223;938.4459;;;;
2020/09/05 11:34:46;;;;;;;0.2;0.2;;;;;;;36.08;30.49609;938.5041;;;;
2020/09/05 11:37:14;;;;;;;0.7;0.3;;;;;;;35.62;30.58594;938.4274;;;;
2020/09/05 11:39:39;;;;;;;0.4;0.4;;;;;;;35.32;31.29004;938.4333;;;;
2020/09/05 11:42:07;;;;;;;0.7;0.6;;;;;;;35.25;30.40332;938.4626;;;;
2020/09/05 11:44:32;;;;;;;0.2;0.2;;;;;;;34.99;32.66699;938.4017;;;;
2020/09/05 11:46:59;;;;;;;0.2;0.2;;;;;;;34.18;33.36816;938.3279;;;;
2020/09/05 11:49:24;;;;;;;1.3;0.6;;;;;;;34.06;33.2627;938.3164;;;;
2020/09/05 11:51:49;;;;;;;0.6;0.5;;;;;;;33.71;34.78906;938.3212;;;;
2020/09/05 11:54:15;;;;;;;0.9;0.4;;;;;;;33.33;34.29102;938.2278;;;;
2020/09/05 11:56:40;;;;;;;0.6;0.5;;;;;;;32.99;34.55371;938.2112;;;;
2020/09/05 11:59:05;;;;;;;1.6;0.5;;;;;;;32.83;34.88965;938.2797;;;;
2020/09/05 12:01:30;;;;;;;0.8;0.5;;;;;;;32.91;34.30664;938.2494;;;;
2020/09/05 12:03:55;;;;;;;0.5;0.4;;;;;;;32.99;35.82715;938.2149;;;;
2020/09/05 12:06:20;;;;;;;1.6;0.7;;;;;;;33.17;34.83105;938.2556;;;;
2020/09/05 12:08:45;;;;;;;0.5;0.4;;;;;;;33.47;31.5;938.2553;;;;
2020/09/05 12:11:10;;;;;;;2.3;0.9;;;;;;;33.83;32.08984;938.197;;;;
2020/09/05 12:13:36;;;;;;;0.5;0.5;;;;;;;33.56;33.82715;938.2017;;;;
2020/09/05 12:16:02;;;;;;;0.6;0.4;;;;;;;33.77;33.26563;938.1475;;;;
2020/09/05 12:18:29;;;;;;;1.9;0.6;;;;;;;33.96;34.41113;938.1401;;;;
2020/09/05 12:20:54;;;;;;;0.5;0.5;;;;;;;34.29;32.61719;938.1295;;;;
2020/09/05 12:23:19;;;;;;;0.4;0.3;;;;;;;34.01;32.8623;938.0944;;;;
2020/09/05 12:25:47;;;;;;;0.7;0.4;;;;;;;33.98;33.25684;938.087;;;;
2020/09/05 12:28:13;;;;;;;1.4;0.3;;;;;;;34.03;34.80176;938.0884;;;;
2020/09/05 12:30:38;;;;;;;0.6;0.4;;;;;;;34.21;33.4541;938.0583;;;;
2020/09/05 12:33:03;;;;;;;0.3;0.3;;;;;;;34.42;31.0127;938.0681;;;;
2020/09/05 12:35:28;;;;;;;0.4;0.3;;;;;;;34.48;31.18457;938.0352;;;;
2020/09/05 12:37:53;;;;;;;1.4;0.3;;;;;;;34.38;33.94824;937.9694;;;;
2020/09/05 12:40:21;;;;;;;0.8;0.4;;;;;;;34.48;30.40137;938.0097;;;;
2020/09/05 12:42:47;;;;;;;0.6;0.3;;;;;;;34.47;29.77441;937.9913;;;;
2020/09/05 12:45:19;;;;;;;0.5;0.4;;;;;;;34.35;32.04297;937.9358;;;;
2020/09/05 12:47:45;;;;;;;0.5;0.4;;;;;;;34.39;32.17871;937.9102;;;;
2020/09/05 12:50:10;;;;;;;0.3;0.3;;;;;;;34.14;33.04004;937.8942;;;;
2020/09/05 12:52:35;;;;;;;0.4;0.4;;;;;;;34.14;31.53418;937.8391;;;;
2020/09/05 12:55:04;;;;;;;4.3;0.7;;;;;;;34.14;31.23438;937.8651;;;;
2020/09/05 12:57:29;;;;;;;0.6;0.5;;;;;;;34.21;31.3584;937.8413;;;;
2020/09/05 12:59:55;;;;;;;1;0.5;;;;;;;34.05;33.27344;937.8463;;;;
2020/09/05 13:02:20;;;;;;;0.3;0.3;;;;;;;33.94;31.94238;937.8674;;;;
2020/09/05 13:04:45;;;;;;;0.5;0.4;;;;;;;33.88;31.92578;937.8577;;;;
2020/09/05 13:07:11;;;;;;;0.5;0.5;;;;;;;33.89;31.1084;937.8314;;;;
2020/09/05 13:09:38;;;;;;;0.3;0.3;;;;;;;33.99;31.6084;937.7717;;;;
2020/09/05 13:12:03;;;;;;;0.4;0.3;;;;;;;34.01;31.09277;937.8002;;;;
2020/09/05 13:14:28;;;;;;;1.8;0.6;;;;;;;33.95;32.24316;937.7899;;;;
2020/09/05 13:16:56;;;;;;;0.4;0.3;;;;;;;33.95;31.93066;937.7976;;;;
2020/09/05 13:19:21;;;;;;;0.4;0.3;;;;;;;33.81;32.82324;937.8074;;;;
2020/09/05 13:21:49;;;;;;;1.1;0.3;;;;;;;33.81;31.66797;937.8387;;;;
2020/09/05 13:24:14;;;;;;;0.8;0.5;;;;;;;33.47;31.15137;937.7731;;;;
2020/09/05 13:26:40;;;;;;;0.3;0.3;;;;;;;33.54;32.75488;937.7568;;;;
2020/09/05 13:29:05;;;;;;;0.7;0.4;;;;;;;33.48;31.44043;937.7759;;;;
2020/09/05 13:31:31;;;;;;;0.6;0.3;;;;;;;33.35;32.33301;937.8217;;;;
2020/09/05 13:33:56;;;;;;;1.3;0.4;;;;;;;33.26;31.28125;937.8256;;;;
2020/09/05 13:36:21;;;;;;;0.4;0.4;;;;;;;32.76;33.01172;937.8275;;;;
2020/09/05 13:38:46;;;;;;;0.4;0.4;;;;;;;32.12;33.70801;937.8077;;;;
2020/09/05 13:41:12;;;;;;;1;0.4;;;;;;;31.93;34.06641;937.8383;;;;
2020/09/05 13:43:37;;;;;;;0.4;0.3;;;;;;;32.03;34.00195;937.8367;;;;
2020/09/05 13:46:03;;;;;;;0.4;0.4;;;;;;;31.95;35.36133;937.8695;;;;
2020/09/05 13:48:27;;;;;;;0.8;0.5;;;;;;;31.83;34.25;937.8483;;;;
2020/09/05 13:50:53;;;;;;;0.4;0.3;;;;;;;31.7;35.10254;937.8258;;;;
2020/09/05 13:53:22;;;;;;;0.5;0.4;;;;;;;31.6;35.27441;937.8348;;;;
2020/09/05 13:55:47;;;;;;;0.5;0.4;;;;;;;31.55;38.03711;937.7899;;;;
2020/09/05 13:58:18;;;;;;;0.4;0.4;;;;;;;31.43;37.34375;937.7162;;;;
2020/09/05 14:00:44;;;;;;;0.5;0.4;;;;;;;31.32;38.33984;937.717;;;;
2020/09/05 14:03:09;;;;;;;0.4;0.4;;;;;;;31.11;37.82031;937.7661;;;;
2020/09/05 14:05:35;;;;;;;0.5;0.4;;;;;;;30.92;37.67285;937.7644;;;;
2020/09/05 14:08:00;;;;;;;0.6;0.3;;;;;;;30.83;36.85254;937.7803;;;;
2020/09/05 14:10:25;;;;;;;1.3;0.4;;;;;;;30.69;38.19141;937.7659;;;;
2020/09/05 14:12:50;;;;;;;1.1;0.5;;;;;;;30.33;39.04395;937.7729;;;;
2020/09/05 14:15:16;;;;;;;0.6;0.4;;;;;;;30.39;39.20508;937.7737;;;;
2020/09/05 14:17:41;;;;;;;1.3;0.5;;;;;;;30.35;39.53516;937.785;;;;
2020/09/05 14:20:06;;;;;;;0.9;0.5;;;;;;;30.33;38.94824;937.7141;;;;
2020/09/05 14:22:31;;;;;;;0.4;0.4;;;;;;;30.33;38.96094;937.7209;;;;
2020/09/05 14:24:56;;;;;;;0.6;0.5;;;;;;;30.1;37.87891;937.6699;;;;
2020/09/05 14:27:22;;;;;;;2.1;0.9;;;;;;;30.12;39.68262;937.6971;;;;
2020/09/05 14:29:47;;;;;;;0.6;0.5;;;;;;;30.01;40.5918;937.7149;;;;
2020/09/05 14:32:15;;;;;;;0.5;0.4;;;;;;;29.92;38.98535;937.6609;;;;
2020/09/05 14:34:40;;;;;;;0.4;0.3;;;;;;;29.93;39.47559;937.6839;;;;
2020/09/05 14:37:05;;;;;;;0.5;0.4;;;;;;;29.6;41.55664;937.6586;;;;
2020/09/05 14:39:30;;;;;;;0.8;0.8;;;;;;;29.66;40.64355;937.6125;;;;
2020/09/05 14:41:56;;;;;;;0.3;0.3;;;;;;;29.53;40.0127;937.6169;;;;
2020/09/05 14:44:21;;;;;;;0.7;0.4;;;;;;;29.4;40.69238;937.5806;;;;
2020/09/05 14:46:46;;;;;;;2.2;1;;;;;;;29.22;38.40039;937.5807;;;;
2020/09/05 14:49:14;;;;;;;0.8;0.5;;;;;;;29.2;40.79297;937.6017;;;;
2020/09/05 14:51:38;;;;;;;2.3;0.8;;;;;;;29.15;40.21582;937.5617;;;;
2020/09/05 14:54:10;;;;;;;5;0.8;;;;;;;29;41.40625;937.575;;;;
2020/09/05 14:56:31;;;;;;;1.9;0.3;;;;;;;28.56;40.2832;937.5653;;;;
2020/09/05 14:58:57;;;;;;;1.8;0.6;;;;;;;28.5;40.71777;937.6114;;;;
2020/09/05 15:01:22;;;;;;;0.6;0.5;;;;;;;28.26;42.82324;937.6286;;;;
2020/09/05 15:03:47;;;;;;;0.5;0.5;;;;;;;28.14;42.34863;937.5773;;;;
2020/09/05 15:06:12;;;;;;;1.9;0.4;;;;;;;28.31;42.23438;937.5719;;;;
2020/09/05 15:08:38;;;;;;;0.6;0.4;;;;;;;28.25;41.58691;937.6869;;;;
2020/09/05 15:11:04;;;;;;;1.4;0.7;;;;;;;28.02;42.15918;937.6639;;;;
2020/09/05 15:13:29;;;;;;;0.3;0.3;;;;;;;27.97;42.90332;937.7194;;;;
2020/09/05 15:15:54;;;;;;;0.5;0.5;;;;;;;27.95;43.74414;937.7344;;;;
2020/09/05 15:18:19;;;;;;;0.6;0.5;;;;;;;27.88;42.09863;937.6774;;;;
2020/09/05 15:20:44;;;;;;;0.9;0.4;;;;;;;27.87;42.26465;937.6292;;;;
2020/09/05 15:23:09;;;;;;;0.6;0.4;;;;;;;27.81;43.13672;937.6989;;;;
2020/09/05 15:25:35;;;;;;;0.5;0.4;;;;;;;27.76;42.28906;937.7126;;;;
2020/09/05 15:28:00;;;;;;;1.1;0.7;;;;;;;27.7;43.58887;937.7043;;;;
2020/09/05 15:30:27;;;;;;;1.2;0.5;;;;;;;27.53;44.50977;937.7308;;;;
2020/09/05 15:32:52;;;;;;;1.5;0.4;;;;;;;27.4;44.37891;937.6903;;;;
2020/09/05 15:35:17;;;;;;;0.6;0.6;;;;;;;27.42;45.85156;937.7483;;;;
2020/09/05 15:37:42;;;;;;;0.7;0.4;;;;;;;27.26;47.06934;937.7115;;;;
2020/09/05 15:40:07;;;;;;;0.8;0.4;;;;;;;27.21;47.05078;937.7078;;;;
2020/09/05 15:42:34;;;;;;;1.4;0.4;;;;;;;27.25;45.26465;937.766;;;;
2020/09/05 15:44:59;;;;;;;0.9;0.5;;;;;;;27.21;45.91504;937.7817;;;;
2020/09/05 15:47:24;;;;;;;0.8;0.4;;;;;;;27.27;44.75684;937.7698;;;;
2020/09/05 15:49:49;;;;;;;0.9;0.7;;;;;;;27.14;45.38477;937.6559;;;;
2020/09/05 15:52:17;;;;;;;0.9;0.5;;;;;;;27.13;46.09473;937.663;;;;
2020/09/05 15:54:42;;;;;;;0.5;0.5;;;;;;;26.98;43.37695;937.697;;;;
2020/09/05 15:57:08;;;;;;;1.1;0.5;;;;;;;26.97;44.20605;937.6583;;;;
2020/09/05 15:59:33;;;;;;;0.7;0.5;;;;;;;26.9;45.02832;937.5887;;;;
2020/09/05 16:01:58;;;;;;;0.7;0.5;;;;;;;26.94;46.79883;937.68;;;;
2020/09/05 16:04:24;;;;;;;0.3;0.3;;;;;;;27;46.61523;937.6844;;;;
2020/09/05 16:06:49;;;;;;;1.2;0.6;;;;;;;27.02;46.97266;937.7405;;;;
2020/09/05 16:09:14;;;;;;;5.6;0.5;;;;;;;26.97;44.98828;937.7195;;;;
2020/09/05 16:11:39;;;;;;;0.9;0.4;;;;;;;26.94;46.14648;937.734;;;;
2020/09/05 16:14:04;;;;;;;0.5;0.4;;;;;;;26.98;47.18164;937.7068;;;;
2020/09/05 16:16:29;;;;;;;0.7;0.4;;;;;;;26.88;46.64941;937.6699;;;;
2020/09/05 16:18:54;;;;;;;1.2;0.7;;;;;;;26.79;44.5918;937.6986;;;;
2020/09/05 16:21:19;;;;;;;1.2;0.5;;;;;;;26.75;44.96582;937.7266;;;;
2020/09/05 16:23:44;;;;;;;1;0.8;;;;;;;26.83;46.81055;937.6705;;;;
2020/09/05 16:26:09;;;;;;;1.9;1;;;;;;;26.98;49.00781;937.6346;;;;
2020/09/05 16:28:34;;;;;;;1.2;0.7;;;;;;;27.03;48.27637;937.6938;;;;
2020/09/05 16:31:00;;;;;;;0.6;0.4;;;;;;;26.94;48.70605;937.7781;;;;
2020/09/05 16:33:25;;;;;;;0.9;0.5;;;;;;;26.95;48.32813;937.7263;;;;
2020/09/05 16:35:50;;;;;;;5.6;0.7;;;;;;;26.93;48.97949;937.6986;;;;
2020/09/05 16:38:15;;;;;;;1;0.7;;;;;;;26.97;48.68555;937.6531;;;;
2020/09/05 16:40:48;;;;;;;0.9;0.7;;;;;;;27.05;50.31836;937.6372;;;;
2020/09/05 16:43:13;;;;;;;0.7;0.5;;;;;;;27.05;50.72168;937.6469;;;;
2020/09/05 16:45:38;;;;;;;0.9;0.7;;;;;;;26.98;49.93164;937.6362;;;;
2020/09/05 16:48:03;;;;;;;1.2;0.6;;;;;;;26.71;47.36621;937.6761;;;;
2020/09/05 16:50:29;;;;;;;4.5;2;;;;;;;26.45;49.60059;937.6218;;;;
2020/09/05 16:52:54;;;;;;;3.1;1.7;;;;;;;26.37;50.37305;937.6563;;;;
2020/09/05 16:55:21;;;;;;;1.8;1.3;;;;;;;26.35;50.64258;937.6433;;;;
2020/09/05 16:57:46;;;;;;;0.9;0.6;;;;;;;26.27;52.50195;937.6998;;;;
2020/09/05 17:00:39;;;;;;;1.6;0.8;;;;;;;25.99;49.36035;937.6947;;;;
2020/09/05 17:02:45;;;;;;;1.1;0.9;;;;;;;25.95;50.5498;937.6951;;;;
2020/09/05 17:05:10;;;;;;;2.3;0.9;;;;;;;26.05;51.21094;937.7974;;;;
2020/09/05 17:07:37;;;;;;;1.8;0.7;;;;;;;26.16;50.47852;937.7941;;;;
2020/09/05 17:10:03;;;;;;;1.9;0.7;;;;;;;26.17;52.05371;937.7656;;;;
2020/09/05 17:12:30;;;;;;;1.2;1;;;;;;;25.97;52.45605;937.7918;;;;
2020/09/05 17:14:55;;;;;;;0.9;0.6;;;;;;;25.81;53.39551;937.6911;;;;
2020/09/05 17:17:21;;;;;;;1.3;0.9;;;;;;;25.76;53.36621;937.772;;;;
2020/09/05 17:19:50;;;;;;;1.7;0.6;;;;;;;25.86;52.85742;937.8455;;;;
2020/09/05 17:22:15;;;;;;;1.1;0.7;;;;;;;25.82;52.62695;937.8442;;;;
2020/09/05 17:24:42;;;;;;;1.1;0.7;;;;;;;25.32;54.03223;937.793;;;;
2020/09/05 17:27:07;;;;;;;1.6;1;;;;;;;25.19;55.77637;937.7958;;;;
2020/09/05 17:29:34;;;;;;;3;0.9;;;;;;;25.1;55.8125;937.7413;;;;
2020/09/05 17:31:59;;;;;;;1.4;0.7;;;;;;;25.07;56.57422;937.7119;;;;
2020/09/05 17:34:26;;;;;;;0.9;0.8;;;;;;;24.93;56.60449;937.7518;;;;
2020/09/05 17:36:51;;;;;;;1.8;0.9;;;;;;;24.95;55.71191;937.7576;;;;
2020/09/05 17:39:17;;;;;;;2.7;0.8;;;;;;;24.99;55.95215;937.7784;;;;
2020/09/05 17:41:42;;;;;;;1.8;0.9;;;;;;;25.04;54.86133;937.8133;;;;
2020/09/05 17:44:07;;;;;;;2.3;1.3;;;;;;;25.14;55.22754;937.8296;;;;
2020/09/05 17:46:34;;;;;;;3.7;1.5;;;;;;;25.08;54.6416;937.8537;;;;
2020/09/05 17:49:00;;;;;;;0.9;0.7;;;;;;;24.92;55.99121;937.8435;;;;
2020/09/05 17:51:26;;;;;;;1.3;0.8;;;;;;;24.95;56.83203;937.8072;;;;
2020/09/05 17:53:51;;;;;;;1.1;0.8;;;;;;;25.08;57.33203;937.853;;;;
2020/09/05 17:56:16;;;;;;;1.7;0.8;;;;;;;24.97;57.17676;937.8975;;;;
2020/09/05 17:58:41;;;;;;;0.8;0.6;;;;;;;24.85;57.30176;938.0319;;;;
2020/09/05 18:01:10;;;;;;;1.7;0.9;;;;;;;24.51;57.20117;938.0189;;;;
2020/09/05 18:03:35;;;;;;;3.2;1.1;;;;;;;24.62;56.36523;938.0743;;;;
2020/09/05 18:06:01;;;;;;;0.9;0.6;;;;;;;24.71;56.21191;938.0444;;;;
2020/09/05 18:08:29;;;;;;;6.7;1.1;;;;;;;24.77;56.2666;938.0402;;;;
2020/09/05 18:10:54;;;;;;;2.1;0.9;;;;;;;24.88;55.97266;938.1169;;;;
2020/09/05 18:13:19;;;;;;;6.4;0.8;;;;;;;24.79;56.30566;938.1922;;;;
2020/09/05 18:15:47;;;;;;;0.8;0.8;;;;;;;24.51;57.51953;938.325;;;;
2020/09/05 18:18:12;;;;;;;1;0.7;;;;;;;24.5;57.5752;938.4308;;;;
2020/09/05 18:20:37;;;;;;;0.7;0.7;;;;;;;24.54;57.62793;938.5405;;;;
2020/09/05 18:23:02;;;;;;;2.9;0.8;;;;;;;24.41;57.83594;938.6418;;;;
2020/09/05 18:25:27;;;;;;;1.2;0.8;;;;;;;24.04;59.24707;938.7589;;;;
2020/09/05 18:27:52;;;;;;;2.2;0.8;;;;;;;23.32;49.98242;938.8506;;;;
2020/09/05 18:30:24;;;;;;;2.4;0.4;;;;;;;23.05;50.26953;938.95;;;;
2020/09/05 18:32:48;;;;;;;1;0.5;;;;;;;22.75;50.87012;939.044;;;;
2020/09/05 18:35:15;;;;;;;0.9;0.8;;;;;;;22.31;55.83887;939.2495;;;;
2020/09/05 18:37:40;;;;;;;0.5;0.4;;;;;;;21.93;55.47363;939.2745;;;;
2020/09/05 18:40:05;;;;;;;0.7;0.5;;;;;;;21.73;56.04785;939.3105;;;;
2020/09/05 18:42:31;;;;;;;1;0.7;;;;;;;21.6;57.34277;939.3322;;;;
2020/09/05 18:44:56;;;;;;;1;0.6;;;;;;;21.53;58.43457;939.3475;;;;
2020/09/05 18:47:24;;;;;;;0.9;0.8;;;;;;;21.44;60.23633;939.342;;;;
2020/09/05 18:49:50;;;;;;;0.7;0.6;;;;;;;21.16;60.40918;939.395;;;;
2020/09/05 18:52:14;;;;;;;1.6;0.8;;;;;;;21.16;60.50195;939.4275;;;;
2020/09/05 18:54:44;;;;;;;1.4;0.8;;;;;;;21.19;63.69922;939.4558;;;;
2020/09/05 18:57:11;;;;;;;2.1;0.5;;;;;;;20.93;65.12402;939.4289;;;;
2020/09/05 18:59:36;;;;;;;1.1;0.8;;;;;;;20.99;67.32031;939.4824;;;;
2020/09/05 19:02:05;;;;;;;1.2;0.8;;;;;;;21.05;66.14746;939.5594;;;;
2020/09/05 19:04:30;;;;;;;1;0.5;;;;;;;21.04;65.29199;939.567;;;;
2020/09/05 19:06:56;;;;;;;0.7;0.4;;;;;;;21;68.15234;939.6382;;;;
2020/09/05 19:09:21;;;;;;;1.2;0.6;;;;;;;20.96;69.28027;939.7882;;;;
2020/09/05 19:11:46;;;;;;;1;0.7;;;;;;;21.28;69.14258;939.7728;;;;
2020/09/05 19:14:19;;;;;;;0.9;0.7;;;;;;;21.15;70.70215;939.8869;;;;
2020/09/05 19:16:36;;;;;;;1.1;0.9;;;;;;;21.21;68.99121;939.9185;;;;
2020/09/05 19:19:01;;;;;;;1;0.8;;;;;;;21.26;66.76465;939.8639;;;;
2020/09/05 19:21:30;;;;;;;0.8;0.5;;;;;;;20.99;65.7998;939.9665;;;;
2020/09/05 19:23:54;;;;;;;1.3;0.6;;;;;;;20.83;66.59375;939.992;;;;
2020/09/05 19:26:19;;;;;;;1.3;0.8;;;;;;;20.8;68.98633;940.0369;;;;
2020/09/05 19:28:46;;;;;;;1.2;0.7;;;;;;;20.72;67.74609;940.0804;;;;
2020/09/05 19:31:11;;;;;;;0.7;0.4;;;;;;;20.39;70.55664;940.0647;;;;
2020/09/05 19:33:41;;;;;;;4.2;1.2;;;;;;;20.4;69.94043;940.0441;;;;
2020/09/05 19:36:08;;;;;;;1.2;0.8;;;;;;;20.24;71.54883;939.9844;;;;
2020/09/05 19:38:32;;;;;;;0.9;0.6;;;;;;;19.95;74.02051;939.8979;;;;
2020/09/05 19:40:57;;;;;;;1.7;1;;;;;;;20;75.20996;940.0251;;;;
2020/09/05 19:43:23;;;;;;;1.5;0.6;;;;;;;20.11;75.81055;939.9922;;;;
2020/09/05 19:45:59;;;;;;;0.9;0.6;;;;;;;20.25;75.56641;940.0519;;;;
2020/09/05 19:48:24;;;;;;;0.9;0.7;;;;;;;20.19;74.76172;940.0346;;;;
2020/09/05 19:50:52;;;;;;;1.2;0.7;;;;;;;20.13;74.82227;940.0053;;;;
2020/09/05 19:53:17;;;;;;;8.8;1;;;;;;;19.95;76.74023;939.9778;;;;
2020/09/05 19:55:51;;;;;;;1.5;1;;;;;;;19.8;76.42188;940.0547;;;;
2020/09/05 19:58:20;;;;;;;1;0.6;;;;;;;19.83;76.04395;939.9685;;;;
2020/09/05 20:00:45;;;;;;;0.7;0.5;;;;;;;20.02;76.75293;939.9417;;;;
2020/09/05 20:03:11;;;;;;;0.8;0.7;;;;;;;20.21;75.72363;939.9832;;;;
2020/09/05 20:05:37;;;;;;;1.1;0.8;;;;;;;20.27;75.23047;939.9989;;;;
2020/09/05 20:08:02;;;;;;;1;0.7;;;;;;;19.94;77.48535;940.0928;;;;
2020/09/05 20:10:27;;;;;;;1.7;0.9;;;;;;;19.9;77.00098;940.0186;;;;
2020/09/05 20:12:54;;;;;;;1.4;0.5;;;;;;;19.83;78.18945;940.0234;;;;
2020/09/05 20:15:19;;;;;;;0.7;0.5;;;;;;;19.9;77.61719;939.8999;;;;
2020/09/05 20:17:45;;;;;;;1.8;0.6;;;;;;;20.06;77.0625;939.9261;;;;
2020/09/05 20:20:10;;;;;;;0.8;0.6;;;;;;;20.18;75.66016;939.8908;;;;
2020/09/05 20:22:37;;;;;;;0.6;0.5;;;;;;;20.15;74.83887;939.8948;;;;
2020/09/05 20:25:02;;;;;;;0.9;0.7;;;;;;;20.14;75.14941;939.8427;;;;
2020/09/05 20:27:29;;;;;;;1.2;0.8;;;;;;;19.87;75.65332;939.9037;;;;
2020/09/05 20:29:53;;;;;;;0.6;0.5;;;;;;;19.71;75.99707;939.9453;;;;
2020/09/05 20:32:24;;;;;;;3.6;1;;;;;;;19.79;76.82715;939.9411;;;;
2020/09/05 20:34:48;;;;;;;1.6;1;;;;;;;19.84;76.125;939.8617;;;;
2020/09/05 20:37:13;;;;;;;0.9;0.7;;;;;;;19.78;77.03711;939.8918;;;;
2020/09/05 20:39:38;;;;;;;1.1;0.7;;;;;;;19.8;77.48535;939.9019;;;;
2020/09/05 20:42:03;;;;;;;0.7;0.5;;;;;;;19.59;76.31641;939.8783;;;;
2020/09/05 20:44:29;;;;;;;1.6;0.9;;;;;;;19.52;77.99512;939.8867;;;;
2020/09/05 20:46:55;;;;;;;1.1;0.8;;;;;;;19.44;79.17969;939.9742;;;;
2020/09/05 20:49:20;;;;;;;1.9;1;;;;;;;19.51;78.81934;940.0211;;;;
2020/09/05 20:51:45;;;;;;;0.7;0.6;;;;;;;19.6;78.5332;940.1244;;;;
2020/09/05 20:54:12;;;;;;;1;0.7;;;;;;;19.84;77.08301;940.1412;;;;
2020/09/05 20:56:37;;;;;;;1.2;0.7;;;;;;;19.99;76.37305;940.2751;;;;
2020/09/05 20:59:04;;;;;;;0.7;0.6;;;;;;;19.94;76.77246;940.3201;;;;
2020/09/05 21:01:29;;;;;;;1;0.6;;;;;;;19.99;76.44141;940.2753;;;;
2020/09/05 21:03:54;;;;;;;1.7;0.8;;;;;;;19.95;76.75195;940.2753;;;;
2020/09/05 21:06:19;;;;;;;1;0.9;;;;;;;19.66;78.13574;940.3284;;;;
2020/09/05 21:08:44;;;;;;;1;0.8;;;;;;;19.43;78.05957;940.2102;;;;
2020/09/05 21:11:09;;;;;;;1.2;0.9;;;;;;;19.53;78.71973;940.1587;;;;
2020/09/05 21:13:34;;;;;;;0.8;0.6;;;;;;;19.61;78.52246;940.1953;;;;
2020/09/05 21:16:04;;;;;;;0.8;0.7;;;;;;;19.57;78.64453;940.2656;;;;
2020/09/05 21:18:31;;;;;;;1;0.7;;;;;;;19.68;78.48926;940.2562;;;;
2020/09/05 21:20:56;;;;;;;0.9;0.7;;;;;;;19.79;77.35352;940.2497;;;;
2020/09/05 21:23:22;;;;;;;1.4;0.9;;;;;;;19.78;77.91211;940.3195;;;;
2020/09/05 21:25:47;;;;;;;0.9;0.6;;;;;;;19.66;77.75;940.3755;;;;
2020/09/05 21:28:14;;;;;;;1.1;0.6;;;;;;;19.34;78.99902;940.3225;;;;
2020/09/05 21:30:39;;;;;;;2.1;1;;;;;;;19.13;80.04492;940.3557;;;;
2020/09/05 21:33:08;;;;;;;1.1;0.9;;;;;;;19.14;80.25586;940.3513;;;;
2020/09/05 21:35:33;;;;;;;1.7;1;;;;;;;19.21;80.39746;940.4169;;;;
2020/09/05 21:37:58;;;;;;;1.3;0.8;;;;;;;19.42;78.83887;940.3873;;;;
2020/09/05 21:40:23;;;;;;;1.1;0.6;;;;;;;19.4;78.87012;940.4182;;;;
2020/09/05 21:42:50;;;;;;;2.1;1;;;;;;;19.57;78.55078;940.5314;;;;
2020/09/05 21:45:16;;;;;;;0.9;0.7;;;;;;;19.5;78.66699;940.5528;;;;
2020/09/05 21:47:41;;;;;;;0.6;0.6;;;;;;;19.28;79.32715;940.5458;;;;
2020/09/05 21:50:07;;;;;;;1.5;0.8;;;;;;;19.21;79.80273;940.5178;;;;
2020/09/05 21:52:32;;;;;;;0.9;0.7;;;;;;;19.37;79.79785;940.4639;;;;
2020/09/05 21:54:57;;;;;;;0.6;0.6;;;;;;;19.51;78.37695;940.3643;;;;
2020/09/05 21:57:22;;;;;;;1.7;0.7;;;;;;;19.37;77.19922;940.3097;;;;
2020/09/05 21:59:49;;;;;;;0.5;0.5;;;;;;;19.29;78.28027;940.2395;;;;
2020/09/05 22:02:14;;;;;;;2.6;1;;;;;;;19.25;78.83301;940.2079;;;;
2020/09/05 22:04:49;;;;;;;1.3;0.6;;;;;;;19.23;78.96973;940.1487;;;;
2020/09/05 22:07:14;;;;;;;0.7;0.5;;;;;;;19.14;79.5918;940.1793;;;;
2020/09/05 22:09:39;;;;;;;1;0.8;;;;;;;19.26;79.29883;940.069;;;;
2020/09/05 22:12:04;;;;;;;0.6;0.6;;;;;;;19.31;78.83105;940.0994;;;;
2020/09/05 22:14:30;;;;;;;1;0.7;;;;;;;19.36;78.84082;940.0563;;;;
2020/09/05 22:16:55;;;;;;;3.9;1.1;;;;;;;19.47;78.41699;940.0697;;;;
2020/09/05 22:19:25;;;;;;;0.7;0.5;;;;;;;19.67;77.64746;940.0835;;;;
2020/09/05 22:21:50;;;;;;;0.9;0.6;;;;;;;19.36;78.71094;940.0661;;;;
2020/09/05 22:24:15;;;;;;;0.9;0.7;;;;;;;19.34;78.69629;940.0286;;;;
2020/09/05 22:26:40;;;;;;;0.7;0.7;;;;;;;19.16;79.28125;940.0005;;;;
2020/09/05 22:29:07;;;;;;;0.8;0.6;;;;;;;18.75;80.90625;940.0178;;;;
2020/09/05 22:31:31;;;;;;;1.2;0.7;;;;;;;18.74;80.87988;940.0625;;;;
2020/09/05 22:33:57;;;;;;;1.7;0.9;;;;;;;18.97;79.37598;940.1211;;;;
2020/09/05 22:36:23;;;;;;;2.6;1.2;;;;;;;19.07;78.32129;940.1655;;;;
2020/09/05 22:38:48;;;;;;;3.3;1.1;;;;;;;19.01;78.21875;940.092;;;;
2020/09/05 22:41:13;;;;;;;1.4;0.7;;;;;;;18.83;78.91992;940.1635;;;;
2020/09/05 22:43:38;;;;;;;2;1;;;;;;;18.95;78.11328;940.1434;;;;
2020/09/05 22:46:04;;;;;;;1.3;0.9;;;;;;;18.86;78.35449;940.1847;;;;
2020/09/05 22:48:29;;;;;;;1.5;0.9;;;;;;;18.66;79.9248;940.1309;;;;
2020/09/05 22:50:54;;;;;;;0.8;0.6;;;;;;;18.57;80.69922;940.1674;;;;
2020/09/05 22:53:19;;;;;;;1;0.9;;;;;;;18.52;80.95801;940.1949;;;;
2020/09/05 22:55:47;;;;;;;1.4;0.9;;;;;;;18.5;81.11719;940.1389;;;;
2020/09/05 22:58:12;;;;;;;0.8;0.6;;;;;;;18.47;81.18262;940.1047;;;;
2020/09/05 23:03:07;;;;;;;0.8;0.6;;;;;;;18.37;81.68555;940.0199;;;;
2020/09/05 23:05:34;;;;;;;1.2;0.7;;;;;;;18.35;81.85645;939.984;;;;
2020/09/05 23:07:59;;;;;;;0.6;0.6;;;;;;;18.35;82.09863;939.9486;;;;
2020/09/05 23:10:32;;;;;;;1.7;0.9;;;;;;;18.34;81.98242;939.8987;;;;
2020/09/05 23:12:57;;;;;;;1.2;0.8;;;;;;;18.57;81.41992;939.8956;;;;
2020/09/05 23:15:22;;;;;;;1;0.7;;;;;;;18.77;80.7002;939.902;;;;
2020/09/05 23:17:48;;;;;;;0.9;0.8;;;;;;;18.95;79.73242;939.915;;;;
2020/09/05 23:20:13;;;;;;;5.2;1.3;;;;;;;18.87;79.85742;939.8924;;;;
2020/09/05 23:22:39;;;;;;;1.4;0.7;;;;;;;18.68;80.75488;939.9022;;;;
2020/09/05 23:25:04;;;;;;;2.9;1.1;;;;;;;18.79;79.99414;939.9106;;;;
2020/09/05 23:27:30;;;;;;;1.6;0.8;;;;;;;18.96;78.97754;939.8777;;;;
2020/09/05 23:29:56;;;;;;;0.8;0.6;;;;;;;19.15;78.63867;939.849;;;;
2020/09/05 23:32:21;;;;;;;0.9;0.6;;;;;;;19.33;78.11133;939.7712;;;;
2020/09/05 23:34:47;;;;;;;1;0.6;;;;;;;19.43;77.87305;939.7168;;;;
2020/09/05 23:37:12;;;;;;;0.8;0.6;;;;;;;19.5;77.34961;939.7572;;;;
2020/09/05 23:39:39;;;;;;;0.9;0.6;;;;;;;19.55;76.71777;939.8105;;;;
2020/09/05 23:42:04;;;;;;;1.1;0.8;;;;;;;19.19;76.55078;939.7875;;;;
2020/09/05 23:44:31;;;;;;;1.9;0.8;;;;;;;18.81;78.46289;939.827;;;;
2020/09/05 23:46:57;;;;;;;1.3;0.9;;;;;;;18.77;79.59473;939.8633;;;;
2020/09/05 23:49:22;;;;;;;0.8;0.7;;;;;;;18.75;79.96387;939.8484;;;;
2020/09/05 23:51:47;;;;;;;0.9;0.7;;;;;;;18.71;80.01367;939.842;;;;
2020/09/05 23:54:14;;;;;;;1.3;0.7;;;;;;;18.63;79.16309;939.8531;;;;
2020/09/05 23:56:39;;;;;;;1.1;0.7;;;;;;;18.32;80.77051;939.8965;;;;